Time;durP1;ratioP1;P1;durP2;ratioP2;P2;SDS_P1;SDS_P2;PMS_P1;PMS_P2;Temp;Humidity;BMP_temperature;BMP_pressure;BME280_temperature;BME280_humidity;BME280_pressure;Samples;Min_cycle;Max_cycle;Signal;HPM_P1;HPM_P2
2021/01/02 00:01:37;;;;;;;;;81.75;57.75;;;;;0.08;98.03;99723.38;4997238;28;8863;-62
2021/01/02 00:04:55;;;;;;;;;90.25;65.50;;;;;0.32;98.17;99711.47;4976816;28;8842;-61
2021/01/02 00:08:06;;;;;;;;;83.00;58.50;;;;;0.12;98.44;99730.31;4984578;28;8855;-58
2021/01/02 00:10:47;;;;;;;;;83.50;64.50;;;;;0.02;98.03;99739.31;4994500;28;8848;-58
2021/01/02 00:13:48;;;;;;;;;86.25;64.00;;;;;0.05;98.11;99733.09;4994657;28;8878;-61
2021/01/02 00:17:02;;;;;;;;;89.75;63.50;;;;;-0.08;98.44;99737.72;5005645;28;8879;-57
2021/01/02 00:19:50;;;;;;;;;93.00;71.00;;;;;0.31;98.16;99732.63;5010551;28;8847;-58
2021/01/02 00:22:52;;;;;;;;;92.75;71.50;;;;;0.11;97.85;99733.88;4993446;28;8842;-61
2021/01/02 00:25:23;;;;;;;;;107.25;73.75;;;;;0.27;97.98;99733.59;4993044;28;8858;-59
2021/01/02 00:28:21;;;;;;;;;112.50;81.25;;;;;-0.06;98.76;99736.81;4987886;28;8865;-62
2021/01/02 00:31:00;;;;;;;;;101.25;74.25;;;;;0.15;98.15;99735.53;4957379;28;8873;-60
2021/01/02 00:34:16;;;;;;;;;106.00;78.00;;;;;0.33;97.78;99733.47;4979380;28;8851;-60
2021/01/02 00:37:04;;;;;;;;;105.25;75.00;;;;;0.09;97.81;99743.59;4968252;28;8866;-58
2021/01/02 00:40:02;;;;;;;;;100.25;71.50;;;;;0.07;98.07;99753.28;4990074;28;8843;-58
2021/01/02 00:42:32;;;;;;;;;100.50;71.75;;;;;-0.07;98.32;99743.00;4985295;28;8921;-58
2021/01/02 00:45:02;;;;;;;;;113.25;83.50;;;;;0.32;97.85;99750.22;4979671;28;8842;-58
2021/01/02 00:47:38;;;;;;;;;107.00;80.25;;;;;0.33;97.35;99754.59;4982260;28;8831;-58
2021/01/02 00:50:12;;;;;;;;;111.00;77.75;;;;;0.12;97.68;99762.00;4996097;28;8870;-61
2021/01/02 00:52:50;;;;;;;;;101.50;73.25;;;;;0.24;97.95;99765.31;4973284;28;8966;-59
2021/01/02 00:55:45;;;;;;;;;108.00;75.25;;;;;0.38;97.32;99758.88;4999977;28;8840;-58
2021/01/02 00:58:43;;;;;;;;;101.00;75.00;;;;;0.22;97.26;99766.22;4978873;28;8939;-62
2021/01/02 01:01:30;;;;;;;;;107.00;78.00;;;;;0.08;97.87;99765.63;4953294;28;8861;-57
2021/01/02 01:04:33;;;;;;;;;93.25;69.00;;;;;0.31;97.26;99774.88;4995004;28;8829;-58
2021/01/02 01:07:02;;;;;;;;;106.25;78.00;;;;;0.29;97.19;99774.91;4987043;28;8969;-58
2021/01/02 01:09:38;;;;;;;;;106.00;75.75;;;;;-0.02;97.94;99780.72;4980081;28;8851;-61
2021/01/02 01:12:08;;;;;;;;;99.25;71.50;;;;;0.17;98.05;99776.00;4980037;28;8912;-55
2021/01/02 01:14:37;;;;;;;;;93.75;68.00;;;;;0.08;97.45;99775.28;4979983;28;8948;-59
2021/01/02 01:17:13;;;;;;;;;100.75;68.25;;;;;0.07;97.93;99778.81;4971220;28;8842;-59
2021/01/02 01:19:46;;;;;;;;;90.00;66.00;;;;;0.07;97.68;99782.31;4983121;28;8824;-60
2021/01/02 01:22:17;;;;;;;;;92.75;66.00;;;;;0.07;97.47;99779.69;4973402;28;8960;-59
2021/01/02 01:25:07;;;;;;;;;96.50;67.00;;;;;-0.10;97.81;99772.06;4979928;28;8887;-58
2021/01/02 01:27:55;;;;;;;;;93.00;69.00;;;;;-0.23;97.69;99784.59;4986329;28;8850;-59
2021/01/02 01:30:24;;;;;;;;;85.00;65.00;;;;;-0.22;98.01;99780.19;4977211;28;8860;-59
2021/01/02 01:33:03;;;;;;;;;93.50;68.00;;;;;-0.06;98.02;99768.47;4996454;28;8846;-59
2021/01/02 01:35:43;;;;;;;;;96.50;65.50;;;;;-0.22;97.66;99778.41;4994627;28;8940;-57
2021/01/02 01:38:18;;;;;;;;;86.50;64.00;;;;;0.17;97.50;99780.41;4992175;28;8867;-57
2021/01/02 01:40:57;;;;;;;;;75.25;62.50;;;;;-0.05;97.25;99788.72;4993166;28;8874;-58
2021/01/02 01:44:10;;;;;;;;;76.75;57.50;;;;;0.01;97.33;99782.44;4979019;28;8995;-59
2021/01/02 01:46:52;;;;;;;;;93.25;67.00;;;;;0.12;97.98;99788.41;4974995;28;8842;-55
2021/01/02 01:49:31;;;;;;;;;73.50;57.50;;;;;-0.23;98.63;99792.50;4990371;28;9740;-61
2021/01/02 01:52:12;;;;;;;;;78.00;59.50;;;;;-0.15;98.16;99788.88;4965245;28;8835;-61
2021/01/02 01:55:01;;;;;;;;;90.00;62.00;;;;;-0.20;98.36;99799.50;4964358;28;8862;-57
2021/01/02 01:57:30;;;;;;;;;80.75;57.00;;;;;-0.19;98.85;99797.72;4993531;28;8839;-55
2021/01/02 01:59:57;;;;;;;;;82.00;57.75;;;;;-0.16;99.12;99797.69;4984197;28;8953;-61
2021/01/02 02:02:46;;;;;;;;;95.50;64.00;;;;;-0.22;98.34;99794.25;4994164;28;8860;-57
2021/01/02 02:05:21;;;;;;;;;88.25;60.25;;;;;0.00;97.63;99796.56;4994806;28;8890;-58
2021/01/02 02:08:08;;;;;;;;;75.50;54.00;;;;;-0.42;98.80;99796.34;4975014;28;8920;-57
2021/01/02 02:11:03;;;;;;;;;77.00;54.25;;;;;-0.38;99.05;99792.75;4984443;28;8865;-61
2021/01/02 02:13:50;;;;;;;;;82.75;60.75;;;;;-0.42;99.34;99796.34;4975362;28;9793;-58
2021/01/02 02:16:22;;;;;;;;;85.25;65.25;;;;;-0.73;98.72;99803.81;4991515;28;8871;-61
2021/01/02 02:18:56;;;;;;;;;91.00;69.00;;;;;-0.13;98.72;99797.63;4969743;28;9535;-61
2021/01/02 02:21:28;;;;;;;;;89.75;66.00;;;;;-0.57;98.67;99786.00;4974872;28;8843;-57
2021/01/02 02:24:03;;;;;;;;;94.00;71.00;;;;;-0.92;98.65;99796.16;4994468;28;9628;-55
2021/01/02 02:26:35;;;;;;;;;89.00;63.50;;;;;-0.76;98.75;99790.69;4970665;28;8891;-58
2021/01/02 02:29:18;;;;;;;;;83.25;53.50;;;;;-0.80;98.73;99792.47;4994478;28;8847;-58
2021/01/02 02:31:47;;;;;;;;;89.50;63.75;;;;;-0.89;98.46;99795.25;4981292;28;8829;-58
2021/01/02 02:34:16;;;;;;;;;73.00;50.00;;;;;-0.75;98.63;99793.28;4992384;28;8862;-58
2021/01/02 02:36:43;;;;;;;;;91.00;66.00;;;;;-0.85;98.84;99790.78;4978731;28;8928;-58
2021/01/02 02:39:14;;;;;;;;;87.50;61.25;;;;;-0.85;98.32;99794.28;4989404;28;8946;-57
2021/01/02 02:41:52;;;;;;;;;92.50;64.00;;;;;-0.99;98.60;99796.25;4976422;28;8867;-57
2021/01/02 02:44:31;;;;;;;;;85.75;62.50;;;;;-0.83;98.39;99797.78;4997828;28;8946;-61
2021/01/02 02:47:01;;;;;;;;;90.00;66.75;;;;;-0.92;98.99;99792.66;4984741;28;8861;-57
2021/01/02 02:49:35;;;;;;;;;85.75;63.25;;;;;-0.82;98.75;99788.97;4990474;28;8846;-59
2021/01/02 02:52:24;;;;;;;;;76.50;57.75;;;;;-1.03;98.36;99791.91;4966662;28;9669;-60
2021/01/02 02:54:52;;;;;;;;;81.50;59.25;;;;;-1.14;98.37;99784.13;4975752;28;8857;-57
2021/01/02 02:57:21;;;;;;;;;97.00;68.50;;;;;-1.07;98.99;99787.59;4987846;28;9571;-61
2021/01/02 02:59:48;;;;;;;;;80.00;60.25;;;;;-0.96;98.36;99785.69;4962217;28;8921;-59
2021/01/02 03:02:15;;;;;;;;;79.50;58.50;;;;;-1.07;98.10;99792.84;4988134;28;8865;-59
2021/01/02 03:04:42;;;;;;;;;81.75;58.50;;;;;-1.18;98.17;99782.44;4973977;28;8845;-58
2021/01/02 03:07:09;;;;;;;;;88.75;64.00;;;;;-1.07;98.00;99790.22;4992688;28;8850;-56
2021/01/02 03:09:36;;;;;;;;;81.25;53.25;;;;;-1.20;97.65;99792.13;4992640;28;8986;-62
2021/01/02 03:12:05;;;;;;;;;79.00;55.75;;;;;-1.26;98.54;99793.06;4968805;28;8865;-61
2021/01/02 03:14:32;;;;;;;;;74.50;54.00;;;;;-1.22;98.27;99789.50;4993212;28;8969;-61
2021/01/02 03:16:59;;;;;;;;;82.50;62.75;;;;;-1.29;98.02;99784.31;4992828;28;8898;-61
2021/01/02 03:19:31;;;;;;;;;78.50;57.75;;;;;-1.13;98.08;99794.66;4985408;28;8892;-60
2021/01/02 03:21:59;;;;;;;;;84.75;60.00;;;;;-1.18;97.69;99779.81;4980082;28;8953;-61
2021/01/02 03:24:27;;;;;;;;;82.00;57.50;;;;;-1.27;97.71;99783.41;4984339;28;8874;-56
2021/01/02 03:26:54;;;;;;;;;84.75;60.00;;;;;-1.11;97.83;99785.00;4991617;28;8897;-58
2021/01/02 03:29:20;;;;;;;;;102.75;71.75;;;;;-1.20;98.17;99779.81;4988667;28;8868;-61
2021/01/02 03:31:48;;;;;;;;;95.50;68.50;;;;;-1.02;97.54;99780.50;4988550;28;8940;-57
2021/01/02 03:34:15;;;;;;;;;94.00;67.25;;;;;-1.15;97.51;99771.88;4990717;28;8882;-57
2021/01/02 03:36:42;;;;;;;;;86.00;60.75;;;;;-1.34;96.96;99766.84;4973299;28;8908;-59
2021/01/02 03:39:08;;;;;;;;;95.00;68.00;;;;;-1.38;97.35;99780.03;4981002;28;8866;-60
2021/01/02 03:41:35;;;;;;;;;93.75;66.50;;;;;-1.56;97.44;99781.97;4991733;28;8866;-61
2021/01/02 03:44:03;;;;;;;;;83.50;61.50;;;;;-1.37;97.29;99776.50;4980362;28;8861;-60
2021/01/02 03:46:34;;;;;;;;;89.75;66.00;;;;;-1.28;97.50;99771.16;4968429;28;8861;-58
2021/01/02 03:49:02;;;;;;;;;115.50;79.75;;;;;-0.94;96.73;99776.00;4980467;28;8875;-59
2021/01/02 03:51:29;;;;;;;;;127.50;87.50;;;;;-0.78;96.36;99769.59;4991983;28;8839;-59
2021/01/02 03:53:56;;;;;;;;;149.75;111.25;;;;;-0.84;95.42;99772.34;4983296;28;8837;-59
2021/01/02 03:56:22;;;;;;;;;85.50;66.00;;;;;-0.72;95.43;99771.28;4980572;28;8992;-59
2021/01/02 03:58:52;;;;;;;;;117.50;81.00;;;;;-0.92;94.60;99776.84;4991601;28;8867;-58
2021/01/02 04:01:19;;;;;;;;;117.50;82.25;;;;;-1.42;95.50;99773.06;4986792;28;8883;-59
2021/01/02 04:03:45;;;;;;;;;104.75;72.25;;;;;-1.18;96.04;99771.91;4991868;28;8847;-57
2021/01/02 04:06:12;;;;;;;;;79.75;58.25;;;;;-1.27;96.77;99777.28;4992718;28;8846;-58
2021/01/02 04:08:40;;;;;;;;;99.25;69.75;;;;;-1.34;97.01;99784.41;4982623;28;8854;-61
2021/01/02 04:11:08;;;;;;;;;85.50;58.00;;;;;-1.12;96.42;99791.13;4957972;28;8965;-61
2021/01/02 04:13:35;;;;;;;;;87.50;60.00;;;;;-0.93;96.46;99793.53;4990811;28;8847;-59
2021/01/02 04:16:01;;;;;;;;;84.00;61.50;;;;;-1.22;96.46;99786.00;4986244;28;8855;-62
2021/01/02 04:18:28;;;;;;;;;80.25;59.50;;;;;-0.76;96.07;99788.91;4990559;28;8843;-58
2021/01/02 04:20:55;;;;;;;;;81.25;60.50;;;;;-0.99;96.02;99791.84;4984451;28;8873;-56
2021/01/02 04:23:22;;;;;;;;;78.00;50.75;;;;;-1.37;95.80;99798.47;4992308;28;8846;-58
2021/01/02 04:25:49;;;;;;;;;97.25;67.25;;;;;-1.12;95.90;99799.03;4975463;28;8858;-58
2021/01/02 04:28:16;;;;;;;;;89.00;64.50;;;;;-1.32;96.08;99801.03;4987274;28;8847;-58
2021/01/02 04:30:43;;;;;;;;;88.75;62.00;;;;;-1.30;96.62;99799.25;4981482;28;8855;-59
2021/01/02 04:33:10;;;;;;;;;83.00;61.00;;;;;-1.08;96.68;99804.25;4973135;28;8910;-58
2021/01/02 04:35:37;;;;;;;;;78.50;58.50;;;;;-1.00;96.75;99807.66;4980580;28;8897;-61
2021/01/02 04:38:04;;;;;;;;;81.00;60.00;;;;;-0.91;96.66;99800.53;4974594;28;8854;-57
2021/01/02 04:40:32;;;;;;;;;85.75;58.75;;;;;-0.93;96.94;99806.72;4984449;28;8865;-58
2021/01/02 04:42:59;;;;;;;;;84.00;61.25;;;;;-0.76;96.41;99802.09;4990746;28;8877;-62
2021/01/02 04:45:26;;;;;;;;;94.75;67.25;;;;;-0.79;96.34;99807.41;4975092;28;8858;-57
2021/01/02 04:47:54;;;;;;;;;87.50;61.00;;;;;-0.64;96.07;99803.69;4991657;28;8846;-58
2021/01/02 04:50:24;;;;;;;;;90.00;63.00;;;;;-0.60;96.14;99809.78;4982021;28;9575;-58
2021/01/02 04:52:55;;;;;;;;;79.00;56.75;;;;;-0.66;95.75;99800.19;4975181;28;8858;-59
2021/01/02 04:55:24;;;;;;;;;81.00;57.25;;;;;-0.85;96.48;99812.75;4974358;28;8970;-59
2021/01/02 04:57:53;;;;;;;;;78.75;57.00;;;;;-0.86;96.17;99815.41;4989367;28;8956;-60
2021/01/02 05:00:23;;;;;;;;;74.00;55.75;;;;;-0.68;96.71;99813.41;4986626;28;8870;-61
2021/01/02 05:02:52;;;;;;;;;77.00;57.75;;;;;-0.75;96.07;99819.66;4975145;28;8869;-61
2021/01/02 05:05:20;;;;;;;;;78.50;55.75;;;;;-0.58;96.36;99819.44;4974440;28;8978;-58
2021/01/02 05:07:48;;;;;;;;;72.50;53.50;;;;;-0.79;96.59;99820.59;4991849;28;8972;-58
2021/01/02 05:10:14;;;;;;;;;78.25;54.00;;;;;-0.82;96.36;99820.63;4988211;28;8877;-61
2021/01/02 05:12:42;;;;;;;;;73.50;56.50;;;;;-0.93;96.94;99814.63;4981795;28;8949;-59
2021/01/02 05:15:12;;;;;;;;;75.00;52.00;;;;;-0.76;97.60;99817.91;4991779;28;8877;-62
2021/01/02 05:17:41;;;;;;;;;77.00;54.50;;;;;-0.99;97.64;99820.84;4974537;28;8867;-62
2021/01/02 05:20:14;;;;;;;;;72.75;50.00;;;;;-0.70;97.52;99823.09;4981149;28;8861;-58
2021/01/02 05:22:42;;;;;;;;;77.00;53.00;;;;;-1.11;97.55;99816.59;4974433;28;8859;-62
2021/01/02 05:25:16;;;;;;;;;75.75;50.25;;;;;-0.73;97.47;99817.00;4990848;28;8858;-57
2021/01/02 05:27:47;;;;;;;;;63.25;52.00;;;;;-0.69;97.46;99816.91;4969998;28;8855;-59
2021/01/02 05:30:26;;;;;;;;;70.00;54.75;;;;;-0.76;97.34;99820.56;4984263;28;8866;-56
2021/01/02 05:33:02;;;;;;;;;66.25;48.75;;;;;-0.83;96.85;99832.06;4970368;28;8854;-57
2021/01/02 05:35:41;;;;;;;;;57.25;45.00;;;;;-0.85;96.74;99839.09;4988315;28;8846;-57
2021/01/02 05:38:13;;;;;;;;;69.00;48.50;;;;;-0.95;97.27;99837.47;4993832;28;8944;-57
2021/01/02 05:41:00;;;;;;;;;64.50;45.50;;;;;-1.07;97.54;99832.38;4966548;28;8869;-59
2021/01/02 05:43:30;;;;;;;;;49.75;44.50;;;;;-0.74;97.75;99852.16;4981751;28;8843;-57
2021/01/02 05:45:57;;;;;;;;;50.50;40.75;;;;;-0.63;97.29;99837.09;4977820;28;8925;-58
2021/01/02 05:48:27;;;;;;;;;61.00;47.25;;;;;-0.63;97.65;99836.19;4976088;28;8862;-58
2021/01/02 05:51:02;;;;;;;;;62.75;47.25;;;;;-0.67;97.37;99833.59;4974848;28;8989;-57
2021/01/02 05:53:35;;;;;;;;;58.75;44.25;;;;;-0.68;97.07;99834.50;4973828;28;8948;-61
2021/01/02 05:56:11;;;;;;;;;45.75;39.75;;;;;-0.74;97.57;99820.50;4991102;28;8838;-61
2021/01/02 05:58:45;;;;;;;;;53.00;39.50;;;;;-0.60;97.71;99825.63;4976978;28;8884;-61
2021/01/02 06:01:19;;;;;;;;;45.50;37.00;;;;;-0.77;97.43;99836.38;4987207;28;8885;-59
2021/01/02 06:03:50;;;;;;;;;44.50;35.75;;;;;-0.71;97.26;99845.09;4994261;28;8855;-58
2021/01/02 06:06:20;;;;;;;;;56.50;43.00;;;;;-0.57;97.11;99850.16;4994326;28;8859;-57
2021/01/02 06:08:50;;;;;;;;;55.00;40.50;;;;;-0.76;97.11;99849.53;4977257;28;8862;-61
2021/01/02 06:11:19;;;;;;;;;50.25;39.50;;;;;-0.78;97.30;99856.59;4986656;28;8846;-58
2021/01/02 06:13:53;;;;;;;;;50.00;40.75;;;;;-0.79;97.54;99849.59;4977260;28;8948;-56
2021/01/02 06:16:21;;;;;;;;;60.50;45.00;;;;;-0.67;96.88;99859.09;4974941;28;8856;-58
2021/01/02 06:18:49;;;;;;;;;55.25;44.00;;;;;-0.74;97.00;99852.16;4955899;28;8843;-58
2021/01/02 06:21:19;;;;;;;;;45.00;39.00;;;;;-0.70;96.61;99862.63;4980191;28;8861;-59
2021/01/02 06:23:47;;;;;;;;;43.00;30.00;;;;;-0.88;96.74;99863.75;4961257;28;8989;-58
2021/01/02 06:26:16;;;;;;;;;39.50;30.75;;;;;-0.78;96.78;99869.78;4991572;28;8861;-61
2021/01/02 06:28:45;;;;;;;;;36.50;26.75;;;;;-0.68;97.04;99879.31;4987690;28;8965;-61
2021/01/02 06:31:15;;;;;;;;;52.25;34.25;;;;;-0.57;96.62;99878.31;4965984;28;8914;-61
2021/01/02 06:33:48;;;;;;;;;36.50;30.75;;;;;-0.31;96.26;99878.81;4994153;28;8873;-58
2021/01/02 06:36:33;;;;;;;;;41.50;36.75;;;;;-0.60;96.54;99873.09;4992910;28;8968;-58
2021/01/02 06:39:28;;;;;;;;;77.25;57.00;;;;;-0.38;96.18;99871.88;4989599;28;9645;-58
2021/01/02 06:41:57;;;;;;;;;57.75;45.75;;;;;-0.39;96.19;99874.56;4985895;28;8858;-62
2021/01/02 06:44:45;;;;;;;;;52.50;35.75;;;;;-0.44;96.54;99871.97;4992594;28;8952;-56
2021/01/02 06:47:21;;;;;;;;;51.00;42.75;;;;;-0.65;96.34;99862.59;4985056;28;8866;-61
2021/01/02 06:49:53;;;;;;;;;44.75;30.25;;;;;-0.70;96.42;99874.94;4981393;28;8866;-58
2021/01/02 06:52:37;;;;;;;;;29.75;24.25;;;;;-0.69;96.10;99874.06;4993585;28;8855;-59
2021/01/02 06:55:21;;;;;;;;;33.50;29.00;;;;;-0.62;96.33;99877.50;4982331;28;8838;-58
2021/01/02 06:57:50;;;;;;;;;45.00;33.00;;;;;-0.61;95.92;99871.31;4974373;28;8972;-59
2021/01/02 07:00:27;;;;;;;;;47.75;33.25;;;;;-0.48;95.96;99865.84;4967779;28;8870;-62
2021/01/02 07:02:55;;;;;;;;;78.50;56.25;;;;;-0.37;95.24;99868.38;4981483;28;9570;-61
2021/01/02 07:05:49;;;;;;;;;57.50;44.50;;;;;-0.08;94.12;99864.41;4976417;28;8921;-60
2021/01/02 07:08:54;;;;;;;;;51.00;43.75;;;;;-0.48;94.57;99875.53;4991460;28;8893;-58
2021/01/02 07:11:38;;;;;;;;;67.25;47.00;;;;;-0.42;94.93;99870.19;4992873;28;9598;-61
2021/01/02 07:14:08;;;;;;;;;54.00;46.00;;;;;-0.36;95.46;99864.81;4987859;28;8973;-59
2021/01/02 07:16:36;;;;;;;;;54.50;40.25;;;;;-0.18;94.62;99873.38;4973615;28;8861;-59
2021/01/02 07:19:06;;;;;;;;;53.00;44.00;;;;;-0.36;94.82;99877.16;4988470;28;8896;-58
2021/01/02 07:21:36;;;;;;;;;56.50;37.00;;;;;-0.23;95.68;99876.94;4983115;28;9569;-62
2021/01/02 07:24:23;;;;;;;;;44.25;33.00;;;;;0.02;95.09;99887.13;4984301;28;8912;-61
2021/01/02 07:27:01;;;;;;;;;46.75;37.75;;;;;0.05;94.31;99887.06;4992079;28;8854;-59
2021/01/02 07:29:32;;;;;;;;;39.00;33.75;;;;;0.16;94.43;99893.06;4958411;28;8825;-62
2021/01/02 07:32:09;;;;;;;;;43.00;33.75;;;;;0.35;95.02;99892.75;4992845;28;8854;-56
2021/01/02 07:35:01;;;;;;;;;63.25;49.00;;;;;0.20;94.94;99888.59;4992906;28;8851;-57
2021/01/02 07:37:45;;;;;;;;;63.25;47.75;;;;;0.36;94.78;99881.28;4972630;28;8889;-58
2021/01/02 07:40:18;;;;;;;;;93.50;70.25;;;;;0.29;94.46;99891.09;4988500;28;8861;-57
2021/01/02 07:42:54;;;;;;;;;61.00;45.75;;;;;0.25;93.99;99893.81;4987748;28;8865;-60
2021/01/02 07:45:25;;;;;;;;;73.75;53.00;;;;;0.38;94.52;99887.44;4990978;28;8854;-61
2021/01/02 07:47:58;;;;;;;;;64.50;45.50;;;;;0.42;94.58;99899.66;4992621;28;8948;-59
2021/01/02 07:50:31;;;;;;;;;77.25;54.00;;;;;0.39;93.89;99902.38;4960640;28;8831;-62
2021/01/02 07:53:02;;;;;;;;;84.75;61.75;;;;;0.40;94.10;99898.84;4974079;28;8796;-61
2021/01/02 07:55:31;;;;;;;;;270.25;210.00;;;;;0.61;94.38;99893.19;4992253;28;8936;-61
2021/01/02 07:58:00;;;;;;;;;102.75;74.00;;;;;0.60;94.20;99896.72;4984450;28;8910;-58
2021/01/02 08:00:28;;;;;;;;;83.25;61.00;;;;;0.64;93.58;99901.06;4975691;28;8859;-60
2021/01/02 08:03:03;;;;;;;;;67.00;47.50;;;;;0.60;93.57;99896.72;4992503;28;8953;-60
2021/01/02 08:05:30;;;;;;;;;105.25;75.00;;;;;0.58;93.72;99902.91;4992465;28;8865;-59
2021/01/02 08:08:01;;;;;;;;;97.75;74.00;;;;;0.62;93.60;99894.06;4978922;28;8865;-57
2021/01/02 08:10:29;;;;;;;;;61.25;48.75;;;;;0.63;93.60;99901.97;4990966;28;8858;-58
2021/01/02 08:13:01;;;;;;;;;43.25;38.25;;;;;0.57;93.68;99894.13;4982355;28;8874;-59
2021/01/02 08:15:35;;;;;;;;;52.75;43.50;;;;;0.71;93.98;99891.25;4990539;28;8850;-58
2021/01/02 08:18:03;;;;;;;;;51.50;43.50;;;;;0.75;93.86;99900.00;4963888;28;8878;-62
2021/01/02 08:20:30;;;;;;;;;61.25;44.50;;;;;0.91;92.91;99905.88;4992825;28;8862;-61
2021/01/02 08:23:05;;;;;;;;;69.25;50.00;;;;;0.99;92.91;99902.16;4992051;28;8854;-61
2021/01/02 08:25:32;;;;;;;;;53.50;42.25;;;;;1.20;92.91;99907.94;4971423;28;8929;-58
2021/01/02 08:27:59;;;;;;;;;76.50;57.75;;;;;1.30;92.85;99906.88;4973272;28;8857;-57
2021/01/02 08:30:27;;;;;;;;;57.75;47.25;;;;;1.31;92.13;99917.41;4955955;28;8857;-58
2021/01/02 08:32:56;;;;;;;;;77.75;61.00;;;;;1.42;92.47;99925.13;4962566;28;8858;-57
2021/01/02 08:35:40;;;;;;;;;101.25;73.75;;;;;1.78;90.90;99925.25;4986345;28;8878;-57
2021/01/02 08:38:12;;;;;;;;;78.25;55.25;;;;;1.58;90.91;99930.09;4989278;28;8897;-57
2021/01/02 08:40:49;;;;;;;;;72.50;50.75;;;;;1.55;91.01;99923.09;4958491;28;8835;-57
2021/01/02 08:47:40;;;;;;;;;35.00;30.25;;;;;1.92;91.01;99940.81;4962293;28;8880;-55
2021/01/02 08:50:15;;;;;;;;;27.25;21.00;;;;;1.98;90.02;99946.88;4991614;28;8855;-56
2021/01/02 08:52:43;;;;;;;;;61.50;47.75;;;;;1.93;89.45;99940.78;4989792;28;8973;-58
2021/01/02 08:55:16;;;;;;;;;77.00;57.25;;;;;2.10;89.20;99944.84;4990968;28;8870;-56
2021/01/02 08:57:50;;;;;;;;;93.25;67.00;;;;;2.33;89.43;99952.25;4984375;28;10990;-55
2021/01/02 09:00:22;;;;;;;;;96.00;65.75;;;;;2.30;88.53;99947.91;4990087;28;8867;-56
2021/01/02 09:03:09;;;;;;;;;105.50;68.25;;;;;2.31;89.38;99957.56;4983606;28;9632;-56
2021/01/02 09:05:37;;;;;;;;;71.00;50.75;;;;;2.25;88.49;99949.78;4987041;28;8858;-56
2021/01/02 09:08:18;;;;;;;;;89.75;58.50;;;;;2.23;88.65;99950.72;4990142;28;8850;-57
2021/01/02 09:10:47;;;;;;;;;71.50;50.50;;;;;2.29;89.10;99935.56;4994313;28;8842;-56
2021/01/02 09:13:20;;;;;;;;;44.50;37.00;;;;;2.02;89.56;99931.75;4994202;28;8862;-56
2021/01/02 09:16:14;;;;;;;;;51.50;45.75;;;;;2.33;88.98;99931.06;4978656;28;8909;-56
2021/01/02 09:18:44;;;;;;;;;87.75;61.50;;;;;2.27;88.13;99925.91;4989522;28;8860;-57
2021/01/02 09:21:12;;;;;;;;;34.75;26.75;;;;;2.22;88.68;99939.25;4983867;28;8952;-57
2021/01/02 09:23:57;;;;;;;;;46.25;37.00;;;;;2.23;88.56;99935.69;4987627;28;8871;-56
2021/01/02 09:26:29;;;;;;;;;38.25;31.50;;;;;2.18;87.96;99927.84;4985228;28;8876;-57
2021/01/02 09:29:00;;;;;;;;;34.75;27.50;;;;;2.38;88.00;99930.03;4983299;28;8888;-56
2021/01/02 09:31:28;;;;;;;;;38.25;29.50;;;;;2.48;87.87;99937.78;4994213;28;8874;-57
2021/01/02 09:33:56;;;;;;;;;36.25;24.25;;;;;2.51;87.97;99943.84;4994270;28;8905;-56
2021/01/02 09:36:23;;;;;;;;;30.50;22.75;;;;;2.44;87.05;99942.25;4980905;28;8940;-57
2021/01/02 09:38:50;;;;;;;;;45.00;37.25;;;;;2.55;87.23;99939.34;4978296;28;8885;-57
2021/01/02 09:41:22;;;;;;;;;36.00;27.75;;;;;2.71;87.30;99948.66;4976664;28;8876;-57
2021/01/02 09:43:53;;;;;;;;;40.50;25.25;;;;;2.68;87.29;99946.06;4970425;28;8857;-57
2021/01/02 09:46:29;;;;;;;;;25.25;18.00;;;;;2.64;86.95;99925.88;4977568;28;8859;-57
2021/01/02 09:48:58;;;;;;;;;28.25;24.00;;;;;2.73;86.70;99925.63;4985319;28;8869;-55
2021/01/02 09:51:30;;;;;;;;;37.25;33.50;;;;;3.04;87.24;99917.72;4992512;28;8862;-57
2021/01/02 09:53:57;;;;;;;;;29.25;23.25;;;;;3.05;86.32;99921.25;4994177;28;8843;-57
2021/01/02 09:56:23;;;;;;;;;29.50;20.50;;;;;2.85;86.62;99912.06;4995277;28;8864;-57
2021/01/02 09:58:50;;;;;;;;;38.25;33.25;;;;;3.07;86.00;99908.81;4996496;28;8877;-56
2021/01/02 10:01:17;;;;;;;;;29.75;23.00;;;;;3.27;85.85;99901.19;4977792;28;8875;-57
2021/01/02 10:03:44;;;;;;;;;30.25;23.00;;;;;3.13;84.81;99911.28;4994086;28;8846;-57
2021/01/02 10:06:12;;;;;;;;;26.75;20.00;;;;;2.97;85.31;99917.94;4993616;28;8949;-57
2021/01/02 10:08:39;;;;;;;;;22.25;22.00;;;;;3.13;85.27;99903.34;4986524;28;11036;-57
2021/01/02 10:11:06;;;;;;;;;33.00;25.75;;;;;3.18;85.02;99890.81;4964540;28;8854;-57
2021/01/02 10:13:33;;;;;;;;;28.75;26.00;;;;;3.08;84.94;99894.63;4991701;28;8853;-54
2021/01/02 10:16:00;;;;;;;;;24.25;23.25;;;;;3.18;84.63;99879.34;4970681;28;8850;-56
2021/01/02 10:18:31;;;;;;;;;25.25;21.75;;;;;3.45;85.08;99875.00;4980094;28;8863;-57
2021/01/02 10:20:58;;;;;;;;;25.75;21.75;;;;;3.36;84.22;99878.81;4976292;28;8854;-57
2021/01/02 10:23:25;;;;;;;;;31.50;23.25;;;;;3.73;85.83;99864.44;4992194;28;8870;-57
2021/01/02 10:25:53;;;;;;;;;26.25;19.50;;;;;3.81;84.45;99853.59;5013783;28;8859;-57
2021/01/02 10:28:20;;;;;;;;;28.25;21.00;;;;;3.55;84.99;99859.69;5008852;28;8961;-57
2021/01/02 10:30:47;;;;;;;;;32.50;25.00;;;;;3.72;85.07;99852.09;4993191;28;8980;-57
2021/01/02 10:33:13;;;;;;;;;25.75;20.75;;;;;3.58;84.01;99847.22;4970208;28;8982;-57
2021/01/02 10:35:40;;;;;;;;;28.75;20.00;;;;;3.77;83.48;99844.00;4987662;28;8914;-57
2021/01/02 10:38:07;;;;;;;;;26.75;22.75;;;;;3.79;83.86;99844.78;4993695;28;8867;-57
2021/01/02 10:40:34;;;;;;;;;26.25;21.75;;;;;3.65;82.61;99835.47;4994059;28;8874;-57
2021/01/02 10:43:01;;;;;;;;;28.25;24.25;;;;;4.00;83.84;99833.47;4988425;28;8863;-58
2021/01/02 10:45:28;;;;;;;;;28.00;23.00;;;;;3.93;82.39;99821.34;4976512;28;8956;-57
2021/01/02 10:47:54;;;;;;;;;24.00;15.75;;;;;3.95;82.85;99830.13;4974294;28;8861;-56
2021/01/02 10:50:21;;;;;;;;;41.00;34.00;;;;;4.27;83.15;99818.44;4974189;28;8893;-56
2021/01/02 10:52:49;;;;;;;;;32.25;26.50;;;;;4.27;82.52;99830.88;4974258;28;8884;-56
2021/01/02 10:55:16;;;;;;;;;33.50;28.25;;;;;4.52;81.01;99828.22;4973236;28;9558;-56
2021/01/02 10:57:42;;;;;;;;;29.00;24.67;;;;;4.83;80.99;99820.03;4991981;28;9017;-57
2021/01/02 11:00:10;;;;;;;;;39.00;32.75;;;;;4.88;82.00;99826.06;4994502;28;8882;-56
2021/01/02 11:02:37;;;;;;;;;25.33;19.33;;;;;4.70;80.77;99819.59;4987597;28;8861;-57
2021/01/02 11:05:04;;;;;;;;;83.50;62.25;;;;;4.65;79.96;99818.03;4974653;28;8858;-57
2021/01/02 11:07:31;;;;;;;;;73.00;53.25;;;;;4.73;79.18;99818.63;4972597;28;8881;-58
2021/01/02 11:09:58;;;;;;;;;36.33;28.33;;;;;4.76;80.86;99823.84;4972487;28;8879;-58
2021/01/02 11:12:27;;;;;;;;;26.67;23.33;;;;;5.02;80.44;99821.09;4957030;28;8919;-58
2021/01/02 11:14:57;;;;;;;;;83.00;59.25;;;;;5.14;80.79;99810.94;4974117;28;8880;-58
2021/01/02 11:17:24;;;;;;;;;27.67;22.00;;;;;4.67;80.00;99795.78;4988534;28;8881;-58
2021/01/02 11:19:51;;;;;;;;;28.00;21.00;;;;;4.97;80.52;99807.09;4992999;28;8898;-58
2021/01/02 11:22:18;;;;;;;;;22.67;21.00;;;;;4.94;81.20;99796.56;4993893;28;8839;-59
2021/01/02 11:24:46;;;;;;;;;31.67;21.00;;;;;4.90;80.38;99794.97;4993868;28;8909;-58
2021/01/02 11:27:18;;;;;;;;;35.33;25.00;;;;;5.02;80.60;99789.16;4976491;28;8865;-58
2021/01/02 11:29:46;;;;;;;;;33.00;21.33;;;;;4.80;80.49;99793.56;4974506;28;8876;-58
2021/01/02 11:32:13;;;;;;;;;29.67;22.67;;;;;5.03;80.59;99790.06;4983724;28;9590;-58
2021/01/02 11:34:40;;;;;;;;;28.00;23.33;;;;;4.91;80.26;99791.38;4986116;28;8854;-58
2021/01/02 11:37:11;;;;;;;;;26.67;26.00;;;;;5.14;79.44;99798.50;4992947;28;8896;-58
2021/01/02 11:39:39;;;;;;;;;49.33;40.67;;;;;5.20;81.02;99789.41;4994246;28;8930;-58
2021/01/02 11:42:10;;;;;;;;;53.00;45.75;;;;;4.97;79.96;99791.13;4993869;28;8862;-58
2021/01/02 11:44:37;;;;;;;;;82.75;61.50;;;;;5.11;80.39;99789.75;4994367;28;8863;-59
2021/01/02 11:47:04;;;;;;;;;57.00;44.00;;;;;4.95;81.05;99786.78;4980367;28;8849;-58
2021/01/02 11:49:36;;;;;;;;;33.33;28.00;;;;;5.17;81.11;99786.88;4957579;28;8845;-58
2021/01/02 11:52:07;;;;;;;;;38.75;34.50;;;;;5.17;80.67;99787.72;4974608;28;8873;-58
2021/01/02 11:54:35;;;;;;;;;92.50;64.75;;;;;5.26;80.01;99778.53;4974074;28;9617;-58
2021/01/02 11:57:05;;;;;;;;;103.25;75.00;;;;;5.45;81.48;99782.22;4978316;28;8980;-58
2021/01/02 11:59:33;;;;;;;;;101.75;75.25;;;;;5.43;80.24;99777.88;4973992;28;9515;-58
2021/01/02 12:02:05;;;;;;;;;153.50;133.00;;;;;5.63;80.02;99780.59;4966683;28;8853;-58